Time;durP1;ratioP1;P1;durP2;ratioP2;P2;SDS_P1;SDS_P2;PMS_P1;PMS_P2;Temp;Humidity;BMP_temperature;BMP_pressure;BME280_temperature;BME280_humidity;BME280_pressure;Samples;Min_cycle;Max_cycle;Signal;HPM_P1;HPM_P2
2022/09/15 00:01:35;;;;;;;7.95;3.33;;;13.10;99.90;;;;;;5074139;28;20050;-68
2022/09/15 00:04:02;;;;;;;6.68;2.53;;;13.20;99.90;;;;;;5078045;28;20047;-69
2022/09/15 00:06:28;;;;;;;6.30;2.55;;;13.40;99.90;;;;;;5064556;28;20558;-70
2022/09/15 00:08:53;;;;;;;10.43;2.30;;;13.40;99.90;;;;;;5061166;28;20085;-68
2022/09/15 00:11:23;;;;;;;4.38;1.80;;;13.40;99.90;;;;;;5076243;28;20121;-69
2022/09/15 00:13:49;;;;;;;8.40;1.65;;;13.50;99.90;;;;;;5070570;28;20036;-69
2022/09/15 00:16:16;;;;;;;6.20;1.45;;;13.60;99.90;;;;;;5067365;28;20040;-69
2022/09/15 00:18:43;;;;;;;3.95;1.30;;;13.60;99.90;;;;;;5070733;28;20063;-70
2022/09/15 00:21:14;;;;;;;4.53;1.00;;;13.70;99.90;;;;;;5078588;28;20132;-69
2022/09/15 00:23:40;;;;;;;10.20;1.63;;;13.70;99.90;;;;;;5071360;28;20040;-69
2022/09/15 00:26:11;;;;;;;5.20;0.95;;;13.80;99.90;;;;;;5074148;28;20048;-71
2022/09/15 00:28:37;;;;;;;5.63;0.85;;;13.90;99.90;;;;;;5066212;28;20423;-70
2022/09/15 00:31:06;;;;;;;5.82;1.20;;;13.90;99.90;;;;;;5075264;28;20047;-70
2022/09/15 00:33:32;;;;;;;7.20;1.50;;;13.90;99.90;;;;;;5077571;28;20048;-70
2022/09/15 00:36:02;;;;;;;6.75;1.40;;;13.90;99.90;;;;;;5076739;28;20055;-70
2022/09/15 00:38:28;;;;;;;5.43;0.80;;;13.90;99.90;;;;;;5057795;28;20205;-70
2022/09/15 00:40:56;;;;;;;7.25;1.05;;;13.90;99.90;;;;;;5077657;28;20114;-69
2022/09/15 00:43:40;;;;;;;6.85;0.75;;;13.90;99.90;;;;;;5065874;28;20105;-69
2022/09/15 00:46:07;;;;;;;6.65;1.30;;;13.90;99.90;;;;;;5069965;28;20135;-70
2022/09/15 00:48:34;;;;;;;7.40;0.90;;;13.80;99.90;;;;;;5061390;28;20055;-70
2022/09/15 00:51:02;;;;;;;7.28;1.27;;;13.90;99.90;;;;;;5077257;28;20048;-69
2022/09/15 00:53:29;;;;;;;7.18;1.08;;;14.00;99.90;;;;;;5073042;28;20078;-70
2022/09/15 00:55:56;;;;;;;4.45;0.90;;;14.00;99.90;;;;;;5075362;28;20507;-70
2022/09/15 00:58:27;;;;;;;8.13;1.17;;;14.00;99.90;;;;;;5060520;28;20130;-70
2022/09/15 01:00:57;;;;;;;7.70;1.00;;;14.00;99.90;;;;;;5070146;28;20131;-70
2022/09/15 01:03:25;;;;;;;8.68;1.20;;;14.00;99.90;;;;;;5076961;28;20040;-69
2022/09/15 01:05:55;;;;;;;3.72;0.68;;;14.00;99.90;;;;;;5075864;28;20075;-70
2022/09/15 01:08:27;;;;;;;6.70;0.90;;;14.00;99.90;;;;;;5066256;28;20049;-70
2022/09/15 01:10:53;;;;;;;8.43;0.85;;;14.00;99.90;;;;;;5074197;28;20048;-70
2022/09/15 01:13:19;;;;;;;3.35;0.60;;;14.10;99.90;;;;;;5072564;28;20561;-70
2022/09/15 01:16:15;;;;;;;6.25;0.90;;;14.00;99.90;;;;;;5071438;28;20067;-70
2022/09/15 01:18:57;;;;;;;7.97;0.93;;;14.00;99.90;;;;;;5038587;28;20057;-70
2022/09/15 01:22:05;;;;;;;7.85;1.20;;;14.10;99.90;;;;;;5072371;28;20051;-70
2022/09/15 01:24:40;;;;;;;4.03;0.65;;;14.10;99.90;;;;;;5057365;28;20044;-70
2022/09/15 01:27:29;;;;;;;7.05;0.93;;;14.10;99.90;;;;;;5028757;28;20056;-69
2022/09/15 01:30:07;;;;;;;7.40;0.80;;;14.10;99.90;;;;;;5052388;28;20120;-70
2022/09/15 01:33:09;;;;;;;9.07;1.08;;;14.10;99.90;;;;;;5055250;28;20050;-70
2022/09/15 01:35:50;;;;;;;6.35;0.75;;;14.10;99.90;;;;;;5051036;28;20530;-70
2022/09/15 01:38:38;;;;;;;5.15;0.90;;;14.10;99.90;;;;;;5045435;28;20554;-70
2022/09/15 01:41:25;;;;;;;5.53;0.88;;;14.10;99.90;;;;;;5055620;28;20052;-71
2022/09/15 01:44:06;;;;;;;8.95;1.08;;;14.10;99.90;;;;;;5053915;28;20057;-70
2022/09/15 01:46:35;;;;;;;;;;;14.10;99.90;;;;;;5037193;28;20471;-71
2022/09/15 01:49:02;;;;;;;11.00;1.33;;;14.10;99.90;;;;;;5048657;28;19924;-70
2022/09/15 01:51:31;;;;;;;8.60;1.30;;;14.20;99.90;;;;;;5041880;28;20049;-69
2022/09/15 01:54:00;;;;;;;11.23;1.73;;;14.20;99.90;;;;;;5053921;28;20110;-70
2022/09/15 01:56:25;;;;;;;9.85;1.42;;;14.10;99.90;;;;;;5042431;28;20470;-71
2022/09/15 01:58:51;;;;;;;11.77;1.67;;;14.00;99.90;;;;;;5050682;28;20048;-70
2022/09/15 02:01:43;;;;;;;8.70;1.30;;;13.90;99.90;;;;;;5051524;28;20057;-70
2022/09/15 02:04:28;;;;;;;8.85;1.17;;;13.90;99.90;;;;;;5040475;28;20052;-71
2022/09/15 02:07:12;;;;;;;9.20;1.33;;;13.80;99.90;;;;;;5039424;28;20052;-70
2022/09/15 02:10:10;;;;;;;6.22;0.93;;;13.80;99.90;;;;;;5051478;28;20036;-70
2022/09/15 02:12:46;;;;;;;3.72;0.80;;;13.80;99.90;;;;;;5047339;28;20059;-70
2022/09/15 02:15:15;;;;;;;4.72;0.80;;;13.80;99.90;;;;;;5052528;28;20036;-70
2022/09/15 02:17:45;;;;;;;6.82;0.90;;;13.70;99.90;;;;;;5066493;28;20040;-70
2022/09/15 02:20:32;;;;;;;6.15;0.90;;;13.70;99.90;;;;;;5051739;28;20518;-71
2022/09/15 02:23:07;;;;;;;6.55;1.13;;;13.70;99.90;;;;;;5082510;28;20067;-71
2022/09/15 02:25:54;;;;;;;7.20;1.40;;;13.70;99.90;;;;;;5051103;28;20538;-70
2022/09/15 02:28:26;;;;;;;7.07;1.20;;;13.60;99.90;;;;;;5042830;28;20558;-70
2022/09/15 02:30:56;;;;;;;8.10;1.30;;;13.70;99.90;;;;;;5051142;28;20480;-70
2022/09/15 02:33:23;;;;;;;4.53;1.15;;;13.60;99.90;;;;;;5054282;28;20496;-70
2022/09/15 02:35:50;;;;;;;11.80;1.42;;;13.60;99.90;;;;;;5050988;28;20127;-70
2022/09/15 02:38:17;;;;;;;8.25;1.45;;;13.50;99.90;;;;;;5037186;28;20067;-69
2022/09/15 02:40:43;;;;;;;5.53;0.90;;;13.50;99.90;;;;;;5053095;28;20074;-70
2022/09/15 02:43:12;;;;;;;8.85;1.60;;;13.50;99.90;;;;;;5045526;28;20395;-70
2022/09/15 02:45:39;;;;;;;10.18;1.75;;;13.60;99.90;;;;;;5048179;28;20052;-70
2022/09/15 02:48:04;;;;;;;9.52;1.15;;;13.50;99.90;;;;;;5029195;28;20048;-71
2022/09/15 02:50:30;;;;;;;9.30;1.35;;;13.60;99.90;;;;;;5051228;28;20055;-71
2022/09/15 02:52:56;;;;;;;8.65;1.30;;;13.60;99.90;;;;;;5050785;28;20052;-70
2022/09/15 02:55:23;;;;;;;8.63;1.17;;;13.60;99.90;;;;;;5052508;28;20041;-70
2022/09/15 02:57:48;;;;;;;11.95;1.27;;;13.60;99.90;;;;;;5035929;28;20045;-70
2022/09/15 03:00:16;;;;;;;6.28;1.30;;;13.60;99.90;;;;;;5054447;28;20150;-70
2022/09/15 03:02:48;;;;;;;10.10;1.30;;;13.60;99.90;;;;;;5049680;28;20060;-70
2022/09/15 03:05:20;;;;;;;7.28;1.30;;;13.60;99.90;;;;;;5050537;28;20071;-70
2022/09/15 03:07:46;;;;;;;9.15;1.15;;;13.60;99.90;;;;;;5031218;28;20545;-70
2022/09/15 03:10:13;;;;;;;4.85;1.13;;;13.70;99.90;;;;;;5051137;28;20052;-71
2022/09/15 03:12:48;;;;;;;9.77;1.02;;;13.70;99.90;;;;;;5049594;28;20071;-70
2022/09/15 03:15:16;;;;;;;8.63;1.23;;;13.70;99.90;;;;;;5052314;28;20048;-70
2022/09/15 03:17:45;;;;;;;7.00;1.25;;;13.50;99.90;;;;;;5032881;28;20148;-70
2022/09/15 03:20:13;;;;;;;4.15;0.82;;;13.70;99.90;;;;;;5048655;28;20538;-70
2022/09/15 03:22:39;;;;;;;5.25;1.20;;;13.70;99.90;;;;;;5044661;28;20041;-71
2022/09/15 03:25:06;;;;;;;5.03;0.80;;;13.60;99.90;;;;;;5049824;28;20098;-70
2022/09/15 03:27:32;;;;;;;7.85;1.23;;;13.60;99.90;;;;;;5033223;28;20520;-69
2022/09/15 03:29:58;;;;;;;5.75;1.40;;;13.60;99.90;;;;;;5046813;28;20045;-70
2022/09/15 03:32:24;;;;;;;6.47;1.20;;;13.70;99.90;;;;;;5054199;28;20045;-70
2022/09/15 03:34:50;;;;;;;5.75;1.00;;;13.70;99.90;;;;;;5050720;28;20049;-70
2022/09/15 03:37:16;;;;;;;6.85;1.27;;;13.80;99.90;;;;;;5034278;28;20478;-70
2022/09/15 03:39:41;;;;;;;8.95;1.35;;;13.80;99.90;;;;;;5050495;28;20076;-70
2022/09/15 03:42:07;;;;;;;7.75;1.00;;;13.80;99.90;;;;;;5049199;28;20099;-69
2022/09/15 03:44:33;;;;;;;5.85;1.40;;;13.90;99.90;;;;;;5049960;28;20080;-70
2022/09/15 03:46:58;;;;;;;6.45;1.40;;;13.90;99.90;;;;;;5035314;28;20044;-70
2022/09/15 03:49:24;;;;;;;7.20;1.00;;;13.90;99.90;;;;;;5043331;28;20048;-70
2022/09/15 03:51:50;;;;;;;6.88;1.35;;;13.90;99.90;;;;;;5049326;28;20496;-71
2022/09/15 03:54:16;;;;;;;10.00;1.30;;;13.70;99.90;;;;;;5054001;28;20052;-71
2022/09/15 03:56:42;;;;;;;6.63;1.10;;;13.80;99.90;;;;;;5040385;28;20045;-70
2022/09/15 03:59:08;;;;;;;10.52;1.60;;;13.70;99.90;;;;;;5043726;28;20408;-71
2022/09/15 04:01:34;;;;;;;5.75;1.00;;;13.80;99.90;;;;;;5053174;28;20052;-71
2022/09/15 04:04:00;;;;;;;8.38;1.20;;;13.70;99.90;;;;;;5052672;28;20045;-71
2022/09/15 04:06:27;;;;;;;6.65;1.00;;;13.60;99.90;;;;;;5043767;28;20556;-71
2022/09/15 04:08:53;;;;;;;7.80;1.40;;;13.60;99.90;;;;;;5048627;28;20041;-71
2022/09/15 04:11:20;;;;;;;8.50;1.10;;;13.60;99.90;;;;;;5054493;28;20508;-70
2022/09/15 04:13:47;;;;;;;6.15;1.10;;;13.70;99.90;;;;;;5051836;28;20037;-70
2022/09/15 04:16:17;;;;;;;6.40;1.20;;;13.70;99.90;;;;;;5045626;28;20078;-71
2022/09/15 04:18:44;;;;;;;9.52;1.23;;;13.60;99.90;;;;;;5048505;28;20048;-71
2022/09/15 04:21:13;;;;;;;6.00;1.27;;;13.80;99.90;;;;;;5053731;28;20045;-70
2022/09/15 04:23:39;;;;;;;8.25;1.50;;;13.70;99.90;;;;;;5049902;28;20135;-68
2022/09/15 04:26:10;;;;;;;9.35;1.00;;;13.70;99.90;;;;;;5050180;28;20117;-71
2022/09/15 04:28:37;;;;;;;7.55;1.00;;;13.80;99.90;;;;;;5041559;28;20049;-71
2022/09/15 04:31:08;;;;;;;5.63;1.00;;;13.70;99.90;;;;;;5053043;28;20091;-70
2022/09/15 04:33:36;;;;;;;7.78;1.02;;;13.80;99.90;;;;;;5051989;28;20108;-71
2022/09/15 04:36:07;;;;;;;6.97;1.15;;;13.80;99.90;;;;;;5055433;28;20059;-70
2022/09/15 04:38:34;;;;;;;5.80;0.77;;;13.90;99.90;;;;;;5044074;28;20055;-70
2022/09/15 04:41:00;;;;;;;6.50;1.10;;;13.90;99.90;;;;;;5054388;28;20057;-70
2022/09/15 04:43:27;;;;;;;7.97;1.05;;;13.90;99.90;;;;;;5054842;28;20477;-70
2022/09/15 04:45:53;;;;;;;8.38;1.13;;;13.90;99.90;;;;;;5052861;28;20049;-70
2022/09/15 04:48:20;;;;;;;9.70;1.35;;;13.90;99.90;;;;;;5036461;28;20072;-70
2022/09/15 04:50:45;;;;;;;7.53;0.90;;;13.90;99.90;;;;;;5053999;28;20460;-70
2022/09/15 04:53:11;;;;;;;5.38;0.70;;;14.00;99.90;;;;;;5051947;28;20040;-70
2022/09/15 04:55:37;;;;;;;7.97;1.27;;;13.90;99.90;;;;;;5051838;28;20121;-70
2022/09/15 04:58:04;;;;;;;4.65;0.60;;;13.90;99.90;;;;;;5021708;28;20063;-70
2022/09/15 05:00:33;;;;;;;8.65;1.20;;;13.80;99.90;;;;;;5076106;28;20040;-69
2022/09/15 05:02:59;;;;;;;5.65;0.82;;;13.90;99.90;;;;;;5070587;28;20075;-70
2022/09/15 05:05:25;;;;;;;5.95;1.00;;;13.90;99.90;;;;;;5075856;28;20040;-70
2022/09/15 05:07:51;;;;;;;5.20;0.85;;;13.80;99.90;;;;;;5051285;28;20040;-70
2022/09/15 05:10:18;;;;;;;6.53;0.90;;;13.80;99.90;;;;;;5075411;28;20045;-70
2022/09/15 05:12:44;;;;;;;4.60;0.88;;;13.80;99.90;;;;;;5068934;28;20221;-70
2022/09/15 05:15:10;;;;;;;6.18;1.17;;;13.70;99.90;;;;;;5075003;28;20048;-70
2022/09/15 05:17:36;;;;;;;8.73;0.90;;;13.70;99.90;;;;;;5052216;28;20049;-70
2022/09/15 05:20:02;;;;;;;5.50;0.95;;;13.60;99.90;;;;;;5074495;28;20052;-70
2022/09/15 05:22:28;;;;;;;7.75;1.02;;;13.60;99.90;;;;;;5073039;28;20052;-70
2022/09/15 05:24:54;;;;;;;10.65;1.20;;;13.60;99.90;;;;;;5069949;28;20049;-70
2022/09/15 05:27:19;;;;;;;6.43;1.08;;;13.50;99.90;;;;;;5049635;28;20037;-69
2022/09/15 05:29:45;;;;;;;5.32;0.70;;;13.40;99.90;;;;;;5053786;28;20118;-70
2022/09/15 05:32:10;;;;;;;4.68;0.93;;;13.40;99.90;;;;;;5070060;28;20044;-69
2022/09/15 05:34:36;;;;;;;5.65;1.13;;;13.40;99.90;;;;;;5073923;28;20503;-70
2022/09/15 05:37:02;;;;;;;6.07;1.15;;;13.40;99.90;;;;;;5055798;28;20536;-70
2022/09/15 05:39:28;;;;;;;7.65;1.00;;;13.30;99.90;;;;;;5071985;28;20506;-70
2022/09/15 05:41:54;;;;;;;4.68;0.70;;;13.30;99.90;;;;;;5047390;28;20435;-70
2022/09/15 05:44:22;;;;;;;8.32;1.00;;;13.30;99.90;;;;;;5053939;28;20048;-70
2022/09/15 05:46:48;;;;;;;8.63;0.98;;;13.30;99.90;;;;;;5054869;28;20086;-71
2022/09/15 05:49:14;;;;;;;5.30;1.10;;;13.30;99.90;;;;;;5069450;28;20035;-70
2022/09/15 05:51:40;;;;;;;7.20;1.20;;;13.30;99.90;;;;;;5072604;28;20048;-70
2022/09/15 05:54:06;;;;;;;7.30;0.93;;;13.30;99.90;;;;;;5072659;28;20564;-71
2022/09/15 05:56:32;;;;;;;6.18;1.08;;;13.30;99.90;;;;;;5058365;28;20647;-70
2022/09/15 05:58:58;;;;;;;6.60;1.25;;;13.40;99.90;;;;;;5069478;28;20085;-72
2022/09/15 06:01:28;;;;;;;6.47;1.38;;;13.40;99.90;;;;;;5072775;28;20108;-70
2022/09/15 06:03:55;;;;;;;11.02;1.63;;;13.50;99.90;;;;;;5069237;28;20415;-71
2022/09/15 06:06:22;;;;;;;7.50;1.40;;;13.50;99.90;;;;;;5061254;28;20037;-71
2022/09/15 06:08:54;;;;;;;10.75;1.38;;;13.50;99.90;;;;;;5064690;28;20465;-70
2022/09/15 06:11:25;;;;;;;8.82;1.17;;;13.60;99.90;;;;;;5070049;28;20114;-70
2022/09/15 06:13:51;;;;;;;;;;;13.70;99.90;;;;;;5068121;28;20076;-70
2022/09/15 06:16:20;;;;;;;9.55;1.15;;;13.70;99.90;;;;;;5058982;28;19986;-72
2022/09/15 06:18:47;;;;;;;6.95;0.80;;;13.80;99.90;;;;;;5061302;28;20056;-71
2022/09/15 06:21:20;;;;;;;6.28;0.85;;;13.90;99.90;;;;;;5069417;28;20056;-71
2022/09/15 06:23:46;;;;;;;5.13;0.70;;;13.90;99.90;;;;;;5067441;28;20056;-71
2022/09/15 06:26:14;;;;;;;6.32;0.80;;;14.00;99.90;;;;;;5061088;28;20040;-72
2022/09/15 06:28:41;;;;;;;6.20;0.90;;;14.10;99.90;;;;;;5065633;28;20133;-71
2022/09/15 06:31:13;;;;;;;4.03;0.55;;;14.20;99.90;;;;;;5071635;28;20061;-70
2022/09/15 06:33:45;;;;;;;3.83;0.50;;;14.30;99.90;;;;;;5069549;28;20502;-71
2022/09/15 06:36:12;;;;;;;4.60;0.63;;;14.40;99.90;;;;;;5064350;28;20040;-72
2022/09/15 06:38:38;;;;;;;5.72;0.50;;;14.30;99.90;;;;;;5063666;28;20043;-71
2022/09/15 06:41:05;;;;;;;2.22;0.30;;;14.40;99.90;;;;;;5066771;28;20056;-72
2022/09/15 06:43:31;;;;;;;4.38;0.55;;;14.50;99.90;;;;;;5041945;28;20135;-71
2022/09/15 06:46:06;;;;;;;4.63;0.40;;;14.50;99.90;;;;;;5066847;28;20048;-72
2022/09/15 06:48:32;;;;;;;4.47;0.38;;;14.40;99.90;;;;;;5057381;28;20048;-71
2022/09/15 06:50:59;;;;;;;2.47;0.50;;;14.50;99.90;;;;;;5069402;28;20609;-71
2022/09/15 06:53:27;;;;;;;1.73;0.50;;;14.50;99.90;;;;;;5068164;28;20059;-71
2022/09/15 06:55:53;;;;;;;2.88;0.43;;;14.60;99.90;;;;;;5068600;28;20052;-71
2022/09/15 06:58:19;;;;;;;4.78;0.50;;;14.50;99.90;;;;;;5053680;28;20093;-71
2022/09/15 07:00:45;;;;;;;3.90;0.55;;;14.50;99.90;;;;;;5069227;28;20053;-71
2022/09/15 07:03:11;;;;;;;5.00;0.70;;;14.50;99.90;;;;;;5067919;28;20116;-71
2022/09/15 07:05:37;;;;;;;5.70;0.82;;;14.60;99.90;;;;;;5067167;28;20426;-71
2022/09/15 07:08:02;;;;;;;3.38;0.65;;;14.60;99.90;;;;;;5052524;28;20484;-71
2022/09/15 07:10:28;;;;;;;5.75;1.10;;;14.70;99.90;;;;;;5073641;28;20530;-72
2022/09/15 07:12:54;;;;;;;3.88;0.90;;;14.80;99.90;;;;;;5070600;28;20059;-71
2022/09/15 07:15:22;;;;;;;6.32;0.95;;;14.80;99.90;;;;;;5071508;28;20123;-71
2022/09/15 07:17:47;;;;;;;4.45;0.65;;;14.90;99.90;;;;;;5054673;28;20048;-70
2022/09/15 07:20:13;;;;;;;7.80;0.75;;;14.90;99.90;;;;;;5070071;28;20437;-71
2022/09/15 07:22:39;;;;;;;4.80;0.90;;;14.90;99.90;;;;;;5065886;28;20036;-70
2022/09/15 07:25:05;;;;;;;5.13;1.02;;;14.90;99.90;;;;;;5068850;28;20078;-71
2022/09/15 07:27:31;;;;;;;7.75;0.93;;;14.90;99.90;;;;;;5054839;28;20592;-70
2022/09/15 07:29:59;;;;;;;4.75;0.90;;;14.90;99.90;;;;;;5073209;28;20052;-71
2022/09/15 07:32:25;;;;;;;9.32;0.85;;;14.90;99.90;;;;;;5075669;28;20048;-70
2022/09/15 07:34:51;;;;;;;3.42;0.70;;;14.90;99.90;;;;;;5073216;28;20481;-70
2022/09/15 07:37:17;;;;;;;11.85;1.05;;;14.90;99.90;;;;;;5060231;28;20044;-68
2022/09/15 07:39:43;;;;;;;7.65;1.25;;;14.70;99.90;;;;;;5074418;28;20059;-68
2022/09/15 07:42:08;;;;;;;8.77;1.10;;;14.70;99.90;;;;;;5075337;28;20047;-69
2022/09/15 07:44:34;;;;;;;5.88;1.13;;;14.70;99.90;;;;;;5071365;28;20486;-69
2022/09/15 07:47:00;;;;;;;7.00;1.35;;;14.60;99.90;;;;;;5057719;28;20476;-72
2022/09/15 07:49:25;;;;;;;5.75;1.05;;;14.60;99.90;;;;;;5072835;28;20491;-71
2022/09/15 07:51:51;;;;;;;10.27;1.23;;;14.60;99.90;;;;;;5073546;28;20036;-72
2022/09/15 07:54:17;;;;;;;7.55;1.33;;;14.60;99.90;;;;;;5073934;28;20615;-71
2022/09/15 07:56:42;;;;;;;5.57;1.20;;;14.70;99.90;;;;;;5057592;28;20056;-71
2022/09/15 07:59:08;;;;;;;5.90;0.95;;;14.80;99.90;;;;;;5071651;28;20048;-72
2022/09/15 08:01:34;;;;;;;4.22;1.05;;;14.80;99.90;;;;;;5073141;28;20493;-72
2022/09/15 08:03:59;;;;;;;5.63;0.90;;;15.00;99.90;;;;;;5046627;28;20109;-71
2022/09/15 08:06:26;;;;;;;5.90;0.80;;;15.00;99.90;;;;;;5060793;28;20110;-72
2022/09/15 08:08:52;;;;;;;5.55;0.90;;;15.10;99.90;;;;;;5068941;28;20049;-71
2022/09/15 08:11:19;;;;;;;7.82;1.00;;;15.20;99.90;;;;;;5074123;28;20049;-71
2022/09/15 08:13:49;;;;;;;6.65;1.08;;;15.30;99.90;;;;;;5071641;28;20044;-71
2022/09/15 08:16:19;;;;;;;5.82;0.90;;;15.30;99.90;;;;;;5065979;28;20056;-72
2022/09/15 08:18:45;;;;;;;5.72;1.05;;;15.40;99.90;;;;;;5068017;28;20047;-71
2022/09/15 08:21:13;;;;;;;6.40;0.95;;;15.50;99.90;;;;;;5075209;28;20044;-72
2022/09/15 08:23:39;;;;;;;9.27;1.50;;;15.50;99.90;;;;;;5066370;28;20043;-71
2022/09/15 08:26:10;;;;;;;4.25;1.17;;;15.50;99.90;;;;;;5072787;28;20057;-71
2022/09/15 08:28:36;;;;;;;8.50;1.42;;;15.50;99.90;;;;;;5060007;28;20151;-71
2022/09/15 08:31:07;;;;;;;10.52;1.30;;;15.60;99.90;;;;;;5072718;28;20051;-72
2022/09/15 08:33:33;;;;;;;;;;;15.70;99.90;;;;;;5071638;28;20044;-72
2022/09/15 08:36:04;;;;;;;7.75;1.00;;;15.80;99.90;;;;;;5071479;28;20007;-72
2022/09/15 08:38:30;;;;;;;4.70;1.00;;;15.90;99.90;;;;;;5056276;28;20055;-72
2022/09/15 08:41:03;;;;;;;5.80;0.90;;;15.90;99.90;;;;;;5072148;28;20398;-71
2022/09/15 08:43:35;;;;;;;8.13;1.20;;;15.90;99.90;;;;;;5079864;28;20044;-72
2022/09/15 08:46:08;;;;;;;6.03;1.30;;;15.90;99.90;;;;;;5073647;28;20067;-72
2022/09/15 08:48:48;;;;;;;7.75;1.08;;;15.80;99.90;;;;;;5049881;28;20077;-70
2022/09/15 08:51:27;;;;;;;9.65;1.42;;;15.60;99.90;;;;;;5060339;28;20048;-71
2022/09/15 08:54:02;;;;;;;9.02;1.52;;;15.60;99.90;;;;;;5069974;28;20087;-70
2022/09/15 08:56:29;;;;;;;7.47;1.35;;;15.40;99.90;;;;;;5059352;28;20049;-71
2022/09/15 08:58:55;;;;;;;8.25;1.40;;;15.30;99.90;;;;;;5068984;28;20566;-71
2022/09/15 09:01:36;;;;;;;8.48;1.63;;;15.30;99.90;;;;;;5070132;28;20055;-72
2022/09/15 09:04:38;;;;;;;10.07;1.67;;;15.40;99.90;;;;;;5068601;28;20051;-71
2022/09/15 09:07:24;;;;;;;9.45;1.48;;;15.40;99.90;;;;;;5033525;28;20044;-69
2022/09/15 09:09:59;;;;;;;5.90;1.20;;;15.40;99.90;;;;;;5070297;28;20044;-71
2022/09/15 09:12:50;;;;;;;6.75;1.10;;;15.50;99.90;;;;;;5072423;28;20047;-70
2022/09/15 09:15:18;;;;;;;9.50;1.42;;;15.60;99.90;;;;;;5069055;28;20184;-71
2022/09/15 09:18:06;;;;;;;5.05;1.08;;;15.70;99.90;;;;;;5055241;28;20044;-71
2022/09/15 09:20:50;;;;;;;5.55;1.13;;;15.80;99.90;;;;;;5073498;28;20051;-71
2022/09/15 09:23:22;;;;;;;5.47;0.90;;;15.90;99.90;;;;;;5066708;28;20055;-72
2022/09/15 09:25:48;;;;;;;7.53;1.02;;;15.60;99.90;;;;;;5069699;28;20047;-71
2022/09/15 09:29:00;;;;;;;3.25;0.75;;;15.10;99.90;;;;;;5056494;28;20072;-70
2022/09/15 09:31:27;;;;;;;5.88;1.00;;;14.60;99.90;;;;;;5058303;28;20048;-70
2022/09/15 09:34:06;;;;;;;6.18;1.00;;;14.40;99.90;;;;;;5070522;28;20430;-70
2022/09/15 09:36:32;;;;;;;10.35;1.65;;;14.30;99.90;;;;;;5058319;28;20526;-70
2022/09/15 09:39:00;;;;;;;7.10;1.20;;;14.20;99.90;;;;;;5068396;28;20044;-70
2022/09/15 09:41:34;;;;;;;7.53;1.17;;;14.30;99.90;;;;;;5044483;28;20060;-70
2022/09/15 09:44:02;;;;;;;8.30;1.20;;;14.30;99.90;;;;;;5068903;28;20131;-71
2022/09/15 09:46:28;;;;;;;6.20;1.20;;;14.50;99.90;;;;;;5063993;28;20136;-71
2022/09/15 09:49:01;;;;;;;5.80;1.20;;;14.60;99.90;;;;;;5073735;28;20060;-71
2022/09/15 09:51:50;;;;;;;10.15;1.23;;;14.60;99.90;;;;;;5074646;28;20061;-71
2022/09/15 09:54:19;;;;;;;7.38;1.10;;;14.80;99.90;;;;;;5075916;28;20123;-70
2022/09/15 09:56:47;;;;;;;4.60;1.02;;;15.10;99.90;;;;;;5059031;28;20048;-71
2022/09/15 09:59:33;;;;;;;2.75;0.60;;;15.30;99.90;;;;;;5072732;28;20044;-71
2022/09/15 10:02:10;;;;;;;5.50;1.25;;;15.50;99.90;;;;;;5072009;28;20055;-71
2022/09/15 10:04:50;;;;;;;4.18;0.80;;;15.70;99.90;;;;;;5068652;28;20040;-72
2022/09/15 10:07:19;;;;;;;5.25;0.80;;;15.90;99.90;;;;;;5051530;28;22118;-71
2022/09/15 10:09:55;;;;;;;5.15;0.98;;;16.20;99.90;;;;;;5068587;28;20045;-70
2022/09/15 10:12:40;;;;;;;4.07;1.17;;;16.30;99.90;;;;;;5069350;28;20056;-71
2022/09/15 10:15:18;;;;;;;7.53;1.30;;;16.20;99.90;;;;;;5068489;28;20063;-70
2022/09/15 10:17:45;;;;;;;7.05;1.17;;;16.30;99.90;;;;;;5053930;28;20518;-70
2022/09/15 10:20:20;;;;;;;5.35;1.08;;;16.20;99.90;;;;;;5062477;28;20192;-70
2022/09/15 10:22:46;;;;;;;3.03;0.77;;;16.20;99.90;;;;;;5065831;28;20055;-71
2022/09/15 10:25:21;;;;;;;8.38;1.08;;;16.00;99.90;;;;;;5067663;28;20052;-71
2022/09/15 10:28:08;;;;;;;5.25;0.75;;;15.90;99.90;;;;;;5053606;28;21232;-71
2022/09/15 10:30:35;;;;;;;3.28;1.05;;;15.80;99.90;;;;;;5060066;28;20064;-70
2022/09/15 10:33:19;;;;;;;5.82;0.70;;;15.70;99.90;;;;;;5069394;28;20148;-70
2022/09/15 10:35:44;;;;;;;6.15;0.90;;;15.70;99.90;;;;;;5069165;28;20056;-70
2022/09/15 10:38:20;;;;;;;2.95;0.50;;;15.60;99.90;;;;;;5028001;28;20359;-70
2022/09/15 10:41:02;;;;;;;2.42;0.50;;;15.60;99.90;;;;;;5074803;28;20075;-71
2022/09/15 10:43:58;;;;;;;1.98;0.35;;;15.50;99.90;;;;;;5071025;28;20056;-71
2022/09/15 10:46:49;;;;;;;5.13;0.60;;;15.40;99.90;;;;;;5031583;28;20479;-72
2022/09/15 10:49:51;;;;;;;2.63;0.57;;;15.30;99.90;;;;;;5032557;28;20052;-71
2022/09/15 10:52:47;;;;;;;3.22;0.55;;;15.50;99.90;;;;;;5057804;28;20051;-70
2022/09/15 10:55:32;;;;;;;3.92;0.55;;;15.70;99.90;;;;;;5067800;28;20304;-72
2022/09/15 10:58:21;;;;;;;3.78;0.55;;;15.80;99.90;;;;;;5051511;28;20135;-71
2022/09/15 11:01:16;;;;;;;4.55;0.60;;;15.90;99.90;;;;;;5042752;28;20074;-71
2022/09/15 11:03:59;;;;;;;5.43;0.82;;;16.00;99.90;;;;;;5066939;28;20495;-71
2022/09/15 11:07:09;;;;;;;3.30;0.80;;;16.20;99.90;;;;;;5055317;28;20055;-73
2022/09/15 11:09:40;;;;;;;10.30;0.98;;;16.30;99.90;;;;;;5050240;28;20060;-70
2022/09/15 11:12:29;;;;;;;6.65;1.00;;;16.30;99.90;;;;;;5067228;28;20136;-72
2022/09/15 11:15:06;;;;;;;5.47;0.82;;;16.30;99.90;;;;;;5038065;28;20131;-71
2022/09/15 11:17:50;;;;;;;5.63;0.95;;;16.20;99.90;;;;;;5023763;28;20064;-69
2022/09/15 11:20:44;;;;;;;5.85;0.90;;;16.20;99.90;;;;;;5035355;28;20068;-71
2022/09/15 11:23:19;;;;;;;5.88;0.90;;;16.40;99.90;;;;;;5019241;28;20493;-71
2022/09/15 11:25:56;;;;;;;6.00;0.77;;;16.40;99.90;;;;;;5047156;28;20041;-71
2022/09/15 11:29:04;;;;;;;6.60;0.75;;;16.50;99.90;;;;;;5040296;28;20072;-69
2022/09/15 11:31:38;;;;;;;3.65;0.55;;;16.50;99.90;;;;;;5046772;28;20052;-71
2022/09/15 11:34:19;;;;;;;5.88;0.93;;;16.60;99.90;;;;;;5044843;28;20044;-70
2022/09/15 11:37:11;;;;;;;6.70;0.90;;;16.50;99.90;;;;;;5030573;28;20080;-70
2022/09/15 11:39:46;;;;;;;8.10;1.30;;;16.70;99.90;;;;;;5047933;28;20053;-70
2022/09/15 11:42:54;;;;;;;7.43;1.27;;;16.90;99.90;;;;;;5029978;28;20163;-70
2022/09/15 11:48:40;;;;;;;4.85;1.00;;;17.30;99.90;;;;;;5029426;28;20118;-70
2022/09/15 11:51:06;;;;;;;5.72;0.98;;;16.90;99.90;;;;;;5042236;28;20067;-70
2022/09/15 11:53:41;;;;;;;4.45;0.50;;;16.80;99.90;;;;;;5046042;28;20384;-69
2022/09/15 11:56:28;;;;;;;3.42;0.47;;;16.60;99.90;;;;;;5042829;28;20411;-72
2022/09/15 11:59:16;;;;;;;5.80;0.77;;;16.40;99.90;;;;;;5042456;28;20044;-70
2022/09/15 12:02:03;;;;;;;3.30;0.57;;;16.50;99.90;;;;;;5046239;28;20123;-70
2022/09/15 12:04:34;;;;;;;4.88;0.82;;;16.70;99.90;;;;;;5025603;28;20055;-71
2022/09/15 12:07:04;;;;;;;3.63;0.55;;;16.70;99.90;;;;;;5028619;28;20128;-72
2022/09/15 12:09:29;;;;;;;3.50;0.60;;;16.90;99.90;;;;;;5047610;28;20052;-71
2022/09/15 12:12:00;;;;;;;3.10;0.60;;;16.80;99.90;;;;;;5046729;28;20041;-70
2022/09/15 12:14:40;;;;;;;3.88;0.70;;;16.80;99.90;;;;;;5045210;28;20040;-71
2022/09/15 12:17:11;;;;;;;6.28;0.70;;;16.80;99.90;;;;;;5029566;28;20118;-70
2022/09/15 12:19:54;;;;;;;6.50;0.70;;;16.80;99.90;;;;;;5049018;28;20053;-71
2022/09/15 12:22:27;;;;;;;2.63;0.60;;;16.50;99.90;;;;;;5049738;28;20045;-71
2022/09/15 12:25:05;;;;;;;2.85;0.50;;;16.40;99.90;;;;;;5049349;28;20496;-71
2022/09/15 12:27:31;;;;;;;3.30;0.70;;;16.30;99.90;;;;;;5033526;28;20446;-70
2022/09/15 12:29:59;;;;;;;6.53;0.77;;;16.20;99.90;;;;;;5048560;28;20041;-70
2022/09/15 12:32:32;;;;;;;5.47;0.77;;;16.20;99.90;;;;;;5049730;28;20041;-71
2022/09/15 12:35:04;;;;;;;4.03;0.60;;;16.30;99.90;;;;;;5049649;28;20095;-71
2022/09/15 12:37:34;;;;;;;10.40;1.27;;;16.40;99.90;;;;;;5034605;28;20416;-70
2022/09/15 12:40:01;;;;;;;5.67;0.90;;;16.40;99.90;;;;;;5048232;28;20049;-71
2022/09/15 12:42:30;;;;;;;6.13;1.35;;;16.60;99.90;;;;;;5044899;28;20296;-71
2022/09/15 12:45:00;;;;;;;6.35;0.90;;;16.70;99.90;;;;;;5047405;28;20475;-70
2022/09/15 12:47:55;;;;;;;6.60;0.77;;;16.70;99.90;;;;;;5034256;28;20400;-70
2022/09/15 12:50:36;;;;;;;6.32;0.77;;;16.70;99.90;;;;;;5030485;28;20794;-70
2022/09/15 12:53:23;;;;;;;6.38;0.95;;;16.80;99.90;;;;;;5041473;28;20040;-72
2022/09/15 12:55:55;;;;;;;4.28;0.80;;;16.70;99.90;;;;;;5046011;28;20420;-71
2022/09/15 12:58:38;;;;;;;12.80;1.08;;;16.80;99.90;;;;;;5035175;28;20151;-71
2022/09/15 13:01:22;;;;;;;2.63;0.60;;;16.80;99.90;;;;;;5046732;28;20060;-71
2022/09/15 13:03:48;;;;;;;6.22;1.00;;;16.90;99.90;;;;;;5047798;28;20190;-70
2022/09/15 13:06:25;;;;;;;6.07;0.80;;;17.20;99.90;;;;;;5040676;28;20486;-72
2022/09/15 13:09:00;;;;;;;5.93;1.00;;;17.10;99.90;;;;;;5043430;28;20052;-71
2022/09/15 13:11:30;;;;;;;4.68;0.82;;;17.00;99.90;;;;;;5049141;28;20577;-71
2022/09/15 13:14:02;;;;;;;9.90;1.03;;;16.80;99.90;;;;;;5047583;28;20428;-70
2022/09/15 13:16:42;;;;;;;5.85;1.20;;;16.60;99.90;;;;;;5036910;28;20568;-71